Time;durP1;ratioP1;P1;durP2;ratioP2;P2;SDS_P1;SDS_P2;PMS_P1;PMS_P2;Temp;Humidity;BMP_temperature;BMP_pressure;BME280_temperature;BME280_humidity;BME280_pressure;Samples;Min_cycle;Max_cycle;Signal;HPM_P1;HPM_P2
2023/06/21 00:00:13;;;;;;;15.80;14.00;;;;;;;-128.00;-1.00;-1.00;98042;295;1003229;-36
2023/06/21 00:02:40;;;;;;;19.40;14.30;;;;;;;-128.00;-1.00;-1.00;97938;295;1003552;-32
2023/06/21 00:05:07;;;;;;;16.80;13.00;;;;;;;-128.00;-1.00;-1.00;97977;300;1003255;-32
2023/06/21 00:07:33;;;;;;;15.70;13.20;;;;;;;-128.00;-1.00;-1.00;97851;295;1003368;-32
2023/06/21 00:09:58;;;;;;;13.50;12.20;;;;;;;-128.00;-1.00;-1.00;97930;296;1003046;-35
2023/06/21 00:12:25;;;;;;;18.40;15.10;;;;;;;-128.00;-1.00;-1.00;97908;295;1003970;-34
2023/06/21 00:14:50;;;;;;;13.70;12.20;;;;;;;-128.00;-1.00;-1.00;97931;295;1003940;-34
2023/06/21 00:17:16;;;;;;;18.20;14.60;;;;;;;-128.00;-1.00;-1.00;98096;295;1003607;-34
2023/06/21 00:19:42;;;;;;;17.10;14.90;;;;;;;-128.00;-1.00;-1.00;97977;296;1003654;-30
2023/06/21 00:22:08;;;;;;;18.60;14.90;;;;;;;-128.00;-1.00;-1.00;97930;295;1004002;-36
2023/06/21 00:24:33;;;;;;;16.20;12.40;;;;;;;-128.00;-1.00;-1.00;98012;295;1002690;-31
2023/06/21 00:26:59;;;;;;;15.10;12.70;;;;;;;-128.00;-1.00;-1.00;97846;295;1003356;-30
2023/06/21 00:29:25;;;;;;;12.60;10.70;;;;;;;-128.00;-1.00;-1.00;97908;296;1003308;-34
2023/06/21 00:31:50;;;;;;;13.60;12.20;;;;;;;-128.00;-1.00;-1.00;97983;288;1003442;-34
2023/06/21 00:34:16;;;;;;;11.80;9.00;;;;;;;-128.00;-1.00;-1.00;97958;295;1003456;-31
2023/06/21 00:36:42;;;;;;;15.30;10.40;;;;;;;-128.00;-1.00;-1.00;98050;284;1003056;-37
2023/06/21 01:17:13;;;;;;;19.00;15.40;;;;;;;-98.47;15.08;19839.76;96814;287;1544596;-30
2023/06/21 01:19:47;;;;;;;26.30;14.60;;;;;;;-128.00;-1.00;-1.00;97514;287;1004665;-30
2023/06/21 01:22:38;;;;;;;30.00;14.60;;;;;;;-128.00;-1.00;-1.00;97713;298;1003765;-34
2023/06/21 01:25:28;;;;;;;19.70;15.00;;;;;;;-128.00;-1.00;-1.00;97822;297;1003820;-34
2023/06/21 01:28:17;;;;;;;19.10;14.20;;;;;;;-128.00;-1.00;-1.00;97784;298;1002748;-30
2023/06/21 01:30:45;;;;;;;15.90;13.50;;;;;;;-128.00;-1.00;-1.00;97848;298;1004747;-38
2023/06/21 01:33:10;;;;;;;17.70;14.50;;;;;;;-128.00;-1.00;-1.00;97778;298;1004538;-34
2023/06/21 01:35:36;;;;;;;17.00;14.10;;;;;;;-128.00;-1.00;-1.00;97701;298;1003191;-35
2023/06/21 01:38:02;;;;;;;18.60;15.30;;;;;;;-128.00;-1.00;-1.00;97797;298;1003762;-34
2023/06/21 01:40:28;;;;;;;18.60;14.50;;;;;;;-128.00;-1.00;-1.00;97781;298;1003519;-30
2023/06/21 01:42:54;;;;;;;15.10;13.20;;;;;;;-128.00;-1.00;-1.00;97797;298;1004061;-34
2023/06/21 01:45:24;;;;;;;17.90;13.90;;;;;;;-128.00;-1.00;-1.00;97765;298;1003724;-31
2023/06/21 01:47:51;;;;;;;17.00;12.20;;;;;;;-128.00;-1.00;-1.00;97753;298;1003719;-30
2023/06/21 01:50:16;;;;;;;14.80;13.10;;;;;;;-128.00;-1.00;-1.00;97739;298;1004759;-34
2023/06/21 01:52:42;;;;;;;13.20;11.30;;;;;;;-128.00;-1.00;-1.00;97740;298;1003856;-34
2023/06/21 01:55:08;;;;;;;16.70;13.40;;;;;;;-128.00;-1.00;-1.00;97696;298;1003278;-30
2023/06/21 01:57:35;;;;;;;19.80;15.30;;;;;;;-128.00;-1.00;-1.00;97849;298;1002922;-37
2023/06/21 02:00:16;;;;;;;15.50;12.60;;;;;;;-128.00;-1.00;-1.00;97820;298;1003555;-30
2023/06/21 02:02:50;;;;;;;14.80;13.10;;;;;;;-128.00;-1.00;-1.00;97746;287;1003713;-30
2023/06/21 02:05:16;;;;;;;14.60;13.00;;;;;;;-128.00;-1.00;-1.00;97768;298;1003099;-30
2023/06/21 02:07:46;;;;;;;15.80;14.10;;;;;;;-128.00;-1.00;-1.00;97717;297;1003582;-30
2023/06/21 02:10:13;;;;;;;16.70;13.60;;;;;;;-128.00;-1.00;-1.00;97882;298;1004614;-30
2023/06/21 02:12:40;;;;;;;19.60;14.30;;;;;;;-128.00;-1.00;-1.00;97773;298;1004698;-34
2023/06/21 02:15:07;;;;;;;19.30;14.20;;;;;;;-128.00;-1.00;-1.00;97870;297;1003650;-31
2023/06/21 02:17:32;;;;;;;18.60;13.40;;;;;;;-128.00;-1.00;-1.00;97741;297;1004077;-34
2023/06/21 02:19:58;;;;;;;17.00;13.90;;;;;;;-128.00;-1.00;-1.00;97748;297;1004898;-34
2023/06/21 02:22:24;;;;;;;17.50;13.30;;;;;;;-128.00;-1.00;-1.00;97739;297;1003535;-31
2023/06/21 02:24:49;;;;;;;19.60;14.50;;;;;;;-128.00;-1.00;-1.00;97706;297;1003828;-30
2023/06/21 02:27:16;;;;;;;15.10;10.90;;;;;;;-128.00;-1.00;-1.00;97759;297;1003676;-36
2023/06/21 02:29:42;;;;;;;16.60;14.40;;;;;;;-128.00;-1.00;-1.00;97860;297;1002561;-29
2023/06/21 02:32:08;;;;;;;17.60;13.50;;;;;;;-128.00;-1.00;-1.00;97820;297;1002857;-30
2023/06/21 02:34:34;;;;;;;19.80;14.90;;;;;;;-128.00;-1.00;-1.00;97783;297;1003466;-32
2023/06/21 02:36:59;;;;;;;26.40;13.40;;;;;;;-128.00;-1.00;-1.00;97908;297;1003235;-36
2023/06/21 02:39:25;;;;;;;16.30;13.20;;;;;;;-128.00;-1.00;-1.00;97732;297;1003424;-31
2023/06/21 02:41:54;;;;;;;17.40;12.30;;;;;;;-128.00;-1.00;-1.00;97762;297;1002634;-31
2023/06/21 02:44:20;;;;;;;16.50;13.20;;;;;;;-128.00;-1.00;-1.00;97908;297;1003776;-31
2023/06/21 02:46:46;;;;;;;17.50;13.80;;;;;;;-128.00;-1.00;-1.00;97958;297;1003000;-35
2023/06/21 02:49:11;;;;;;;17.60;14.60;;;;;;;-128.00;-1.00;-1.00;97915;297;1004333;-34
2023/06/21 02:51:37;;;;;;;19.60;13.40;;;;;;;-128.00;-1.00;-1.00;97762;297;1004075;-34
2023/06/21 02:54:03;;;;;;;19.00;14.10;;;;;;;-128.00;-1.00;-1.00;97713;297;1003426;-40
2023/06/21 02:56:32;;;;;;;15.50;13.30;;;;;;;-128.00;-1.00;-1.00;97842;297;1003055;-30
2023/06/21 02:58:58;;;;;;;16.30;12.40;;;;;;;-128.00;-1.00;-1.00;97756;298;1003861;-31
2023/06/21 03:01:23;;;;;;;12.30;10.00;;;;;;;-128.00;-1.00;-1.00;97778;297;1003228;-31
2023/06/21 03:03:49;;;;;;;14.10;12.10;;;;;;;-128.00;-1.00;-1.00;97793;297;1003081;-30
2023/06/21 03:06:15;;;;;;;15.40;13.50;;;;;;;-128.00;-1.00;-1.00;97782;297;1003079;-34
2023/06/21 03:08:41;;;;;;;19.50;13.00;;;;;;;-128.00;-1.00;-1.00;97812;297;1002528;-34
2023/06/21 03:11:12;;;;;;;19.80;13.30;;;;;;;-128.00;-1.00;-1.00;97829;297;1004333;-35
2023/06/21 03:13:37;;;;;;;16.70;12.20;;;;;;;-128.00;-1.00;-1.00;97865;297;1003007;-34
2023/06/21 03:16:04;;;;;;;14.10;11.80;;;;;;;-128.00;-1.00;-1.00;97740;297;1003422;-34
2023/06/21 03:18:30;;;;;;;12.90;10.80;;;;;;;-128.00;-1.00;-1.00;97647;298;1003076;-31
2023/06/21 03:21:01;;;;;;;13.80;12.30;;;;;;;-128.00;-1.00;-1.00;97756;297;1003482;-30
2023/06/21 03:23:27;;;;;;;15.20;13.10;;;;;;;-128.00;-1.00;-1.00;97841;297;1002859;-32
2023/06/21 03:25:53;;;;;;;16.00;13.10;;;;;;;-128.00;-1.00;-1.00;97771;286;1003080;-35
2023/06/21 03:28:19;;;;;;;17.30;13.00;;;;;;;-128.00;-1.00;-1.00;97779;297;1003337;-32
2023/06/21 03:30:44;;;;;;;16.20;12.30;;;;;;;-128.00;-1.00;-1.00;97721;297;1002953;-36
2023/06/21 03:33:11;;;;;;;18.10;12.70;;;;;;;-128.00;-1.00;-1.00;97692;297;1003327;-35
2023/06/21 03:35:37;;;;;;;17.30;13.70;;;;;;;-128.00;-1.00;-1.00;97836;297;1003255;-31
2023/06/21 03:38:03;;;;;;;14.30;12.60;;;;;;;-128.00;-1.00;-1.00;97775;297;1005295;-31
2023/06/21 03:40:28;;;;;;;13.50;12.10;;;;;;;-128.00;-1.00;-1.00;97790;297;1003266;-35
2023/06/21 03:42:54;;;;;;;19.90;13.00;;;;;;;-128.00;-1.00;-1.00;97777;297;1002957;-35
2023/06/21 03:45:20;;;;;;;12.60;11.40;;;;;;;-128.00;-1.00;-1.00;97777;297;1003189;-35
2023/06/21 03:47:46;;;;;;;17.50;13.50;;;;;;;-128.00;-1.00;-1.00;97716;297;1004993;-32
2023/06/21 03:50:12;;;;;;;13.60;12.10;;;;;;;-128.00;-1.00;-1.00;97804;290;1002620;-30
2023/06/21 03:52:37;;;;;;;14.10;12.20;;;;;;;-128.00;-1.00;-1.00;97838;297;1002997;-32
2023/06/21 03:55:04;;;;;;;11.40;10.20;;;;;;;-128.00;-1.00;-1.00;97892;297;1004069;-35
2023/06/21 03:57:30;;;;;;;14.60;12.20;;;;;;;-128.00;-1.00;-1.00;97750;297;1004341;-34
2023/06/21 03:59:55;;;;;;;13.00;11.30;;;;;;;-128.00;-1.00;-1.00;97792;297;1003404;-35
2023/06/21 04:02:21;;;;;;;13.60;11.80;;;;;;;-128.00;-1.00;-1.00;97720;297;1003483;-31
2023/06/21 04:04:48;;;;;;;13.90;12.20;;;;;;;-128.00;-1.00;-1.00;97749;297;1004428;-35
2023/06/21 04:07:14;;;;;;;19.10;12.20;;;;;;;-128.00;-1.00;-1.00;97744;297;1002605;-31
2023/06/21 04:09:39;;;;;;;19.70;14.10;;;;;;;-128.00;-1.00;-1.00;97895;297;1003390;-34
2023/06/21 04:12:06;;;;;;;15.90;12.50;;;;;;;-128.00;-1.00;-1.00;97875;297;1003035;-35
2023/06/21 04:14:31;;;;;;;12.20;10.40;;;;;;;-128.00;-1.00;-1.00;97800;297;1002761;-33
2023/06/21 04:16:57;;;;;;;15.10;12.50;;;;;;;-128.00;-1.00;-1.00;97771;297;1002964;-39
2023/06/21 04:19:23;;;;;;;12.80;11.10;;;;;;;-128.00;-1.00;-1.00;97836;297;1002815;-31
2023/06/21 04:21:50;;;;;;;15.50;12.70;;;;;;;-128.00;-1.00;-1.00;97742;297;1003763;-35
2023/06/21 04:24:16;;;;;;;11.00;8.80;;;;;;;-128.00;-1.00;-1.00;97830;297;1004842;-31
2023/06/21 04:26:42;;;;;;;13.10;11.20;;;;;;;-128.00;-1.00;-1.00;97762;297;1003244;-31
2023/06/21 04:29:07;;;;;;;12.90;11.60;;;;;;;-128.00;-1.00;-1.00;97733;297;1004715;-31
2023/06/21 04:31:37;;;;;;;15.30;12.30;;;;;;;-128.00;-1.00;-1.00;97895;297;1003126;-35
2023/06/21 04:34:06;;;;;;;12.90;11.70;;;;;;;-128.00;-1.00;-1.00;97825;297;1004998;-36
2023/06/21 04:36:31;;;;;;;19.40;11.30;;;;;;;-128.00;-1.00;-1.00;97844;297;1003811;-34
2023/06/21 04:38:57;;;;;;;12.30;11.00;;;;;;;-128.00;-1.00;-1.00;97793;297;1004860;-31
2023/06/21 04:41:23;;;;;;;26.70;13.40;;;;;;;-128.00;-1.00;-1.00;97757;285;1003191;-32
2023/06/21 04:43:49;;;;;;;18.50;14.50;;;;;;;-128.00;-1.00;-1.00;97760;297;1003775;-34
2023/06/21 04:46:17;;;;;;;12.50;9.80;;;;;;;-128.00;-1.00;-1.00;97868;297;1003729;-36
2023/06/21 04:48:46;;;;;;;33.00;12.30;;;;;;;-128.00;-1.00;-1.00;97929;297;1003883;-35
2023/06/21 04:51:15;;;;;;;13.50;10.70;;;;;;;-128.00;-1.00;-1.00;97780;297;1003246;-37
2023/06/21 04:53:42;;;;;;;17.40;12.00;;;;;;;-128.00;-1.00;-1.00;97854;297;1002883;-31
2023/06/21 04:56:08;;;;;;;17.40;12.90;;;;;;;-128.00;-1.00;-1.00;97847;297;1002818;-31
2023/06/21 04:58:37;;;;;;;15.90;9.60;;;;;;;-128.00;-1.00;-1.00;97789;297;1005082;-31
2023/06/21 05:01:03;;;;;;;10.70;9.40;;;;;;;-128.00;-1.00;-1.00;97768;297;1002899;-34
2023/06/21 05:03:28;;;;;;;13.60;10.90;;;;;;;-128.00;-1.00;-1.00;97784;297;1003870;-31
2023/06/21 05:05:54;;;;;;;10.20;9.20;;;;;;;-128.00;-1.00;-1.00;97787;297;1004037;-37
2023/06/21 05:08:20;;;;;;;9.40;8.00;;;;;;;-128.00;-1.00;-1.00;97853;297;1004048;-31
2023/06/21 05:10:45;;;;;;;10.70;9.50;;;;;;;-128.00;-1.00;-1.00;97826;297;1003924;-31
2023/06/21 05:13:11;;;;;;;16.10;9.60;;;;;;;-128.00;-1.00;-1.00;97839;297;1003507;-30
2023/06/21 05:15:37;;;;;;;12.80;8.70;;;;;;;-128.00;-1.00;-1.00;97786;297;1004291;-36
2023/06/21 05:18:05;;;;;;;10.10;9.00;;;;;;;-128.00;-1.00;-1.00;97809;297;1003131;-35
2023/06/21 05:20:32;;;;;;;12.60;11.10;;;;;;;-128.00;-1.00;-1.00;97798;297;1003303;-32
2023/06/21 05:22:58;;;;;;;13.30;10.30;;;;;;;-128.00;-1.00;-1.00;97839;297;1004643;-35
2023/06/21 05:25:24;;;;;;;10.50;8.70;;;;;;;-128.00;-1.00;-1.00;97773;297;1003219;-35
2023/06/21 05:27:49;;;;;;;8.70;7.80;;;;;;;-128.00;-1.00;-1.00;97784;297;1003777;-37
2023/06/21 05:30:15;;;;;;;10.00;9.10;;;;;;;-128.00;-1.00;-1.00;97882;297;1003128;-32
2023/06/21 05:32:41;;;;;;;10.10;9.10;;;;;;;-128.00;-1.00;-1.00;97724;297;1003502;-35
2023/06/21 05:35:07;;;;;;;17.60;9.20;;;;;;;-128.00;-1.00;-1.00;97728;298;1003203;-33
2023/06/21 05:37:33;;;;;;;15.30;7.50;;;;;;;-128.00;-1.00;-1.00;97846;297;1002969;-31
2023/06/21 05:40:00;;;;;;;9.20;8.30;;;;;;;-128.00;-1.00;-1.00;97810;297;1003708;-35
2023/06/21 05:42:27;;;;;;;14.60;8.40;;;;;;;-128.00;-1.00;-1.00;97842;297;1004403;-34
2023/06/21 05:44:52;;;;;;;20.80;8.50;;;;;;;-128.00;-1.00;-1.00;97710;297;1003037;-31
2023/06/21 05:47:18;;;;;;;11.50;7.90;;;;;;;-128.00;-1.00;-1.00;97767;297;1002953;-34
2023/06/21 05:49:44;;;;;;;9.60;8.20;;;;;;;-128.00;-1.00;-1.00;97843;297;1003298;-31
2023/06/21 05:52:09;;;;;;;10.30;8.30;;;;;;;-128.00;-1.00;-1.00;97867;297;1003422;-35
2023/06/21 05:54:37;;;;;;;12.40;8.60;;;;;;;-128.00;-1.00;-1.00;97781;297;1002919;-32
2023/06/21 05:57:04;;;;;;;8.70;7.20;;;;;;;-128.00;-1.00;-1.00;97777;297;1003017;-34
2023/06/21 05:59:30;;;;;;;8.50;7.50;;;;;;;-128.00;-1.00;-1.00;97777;297;1002916;-31
2023/06/21 06:01:55;;;;;;;11.80;8.80;;;;;;;-128.00;-1.00;-1.00;97611;299;1005369;-31
2023/06/21 06:04:21;;;;;;;8.30;7.50;;;;;;;-128.00;-1.00;-1.00;97741;297;1003605;-31
2023/06/21 06:06:47;;;;;;;9.40;8.40;;;;;;;-128.00;-1.00;-1.00;96910;297;1004229;-33
2023/06/21 06:09:13;;;;;;;10.10;7.20;;;;;;;-128.00;-1.00;-1.00;97785;297;1002403;-31
2023/06/21 06:11:39;;;;;;;13.10;8.40;;;;;;;-128.00;-1.00;-1.00;97074;297;1003332;-30
2023/06/21 06:14:04;;;;;;;8.90;7.50;;;;;;;-128.00;-1.00;-1.00;96345;297;1003056;-32
2023/06/21 06:16:30;;;;;;;9.80;7.90;;;;;;;-128.00;-1.00;-1.00;97033;297;1004246;-36
2023/06/21 06:18:56;;;;;;;8.90;8.00;;;;;;;-128.00;-1.00;-1.00;97733;297;1004417;-33
2023/06/21 06:21:22;;;;;;;8.90;7.70;;;;;;;-128.00;-1.00;-1.00;97677;297;1003280;-36
2023/06/21 06:23:50;;;;;;;12.00;8.50;;;;;;;-128.00;-1.00;-1.00;97522;297;1004997;-32
2023/06/21 06:26:21;;;;;;;10.80;8.40;;;;;;;-128.00;-1.00;-1.00;97726;297;1005396;-32
2023/06/21 06:28:47;;;;;;;8.20;7.40;;;;;;;-128.00;-1.00;-1.00;96367;297;1004474;-32
2023/06/21 06:31:13;;;;;;;8.70;7.90;;;;;;;-128.00;-1.00;-1.00;97752;297;1004531;-35
2023/06/21 06:33:39;;;;;;;11.30;8.50;;;;;;;-128.00;-1.00;-1.00;96368;297;1003990;-31
2023/06/21 06:36:05;;;;;;;8.60;7.70;;;;;;;-128.00;-1.00;-1.00;95671;297;1003192;-31
2023/06/21 06:38:31;;;;;;;8.70;7.20;;;;;;;-128.00;-1.00;-1.00;95577;297;1004001;-34
2023/06/21 06:40:56;;;;;;;11.20;8.60;;;;;;;-128.00;-1.00;-1.00;97815;297;1004811;-32
2023/06/21 06:43:22;;;;;;;9.10;7.70;;;;;;;-128.00;-1.00;-1.00;97779;297;1004335;-35
2023/06/21 06:45:48;;;;;;;9.00;8.10;;;;;;;-128.00;-1.00;-1.00;97774;297;1004377;-32
2023/06/21 06:48:13;;;;;;;11.10;8.20;;;;;;;-128.00;-1.00;-1.00;97751;297;1003073;-30
2023/06/21 06:50:39;;;;;;;11.20;7.60;;;;;;;-128.00;-1.00;-1.00;97761;297;1003461;-35
2023/06/21 06:53:05;;;;;;;7.80;7.00;;;;;;;-128.00;-1.00;-1.00;97873;297;1003040;-35
2023/06/21 06:55:31;;;;;;;9.80;8.90;;;;;;;-128.00;-1.00;-1.00;97892;297;1003023;-31
2023/06/21 06:57:58;;;;;;;9.30;8.40;;;;;;;-128.00;-1.00;-1.00;97747;297;1003391;-31
2023/06/21 07:00:24;;;;;;;11.20;7.80;;;;;;;-128.00;-1.00;-1.00;97760;297;1002692;-35
2023/06/21 07:02:56;;;;;;;10.20;8.60;;;;;;;-128.00;-1.00;-1.00;97788;297;1003323;-34
2023/06/21 07:05:25;;;;;;;8.80;7.90;;;;;;;-128.00;-1.00;-1.00;97803;297;1003897;-33
2023/06/21 07:07:52;;;;;;;13.50;7.80;;;;;;;-128.00;-1.00;-1.00;97757;297;1004232;-36
2023/06/21 07:10:19;;;;;;;10.10;8.30;;;;;;;-128.00;-1.00;-1.00;97826;297;1003390;-35
2023/06/21 07:12:44;;;;;;;13.40;8.60;;;;;;;-128.00;-1.00;-1.00;97826;297;1003799;-32
2023/06/21 07:15:10;;;;;;;11.90;9.10;;;;;;;-128.00;-1.00;-1.00;97812;297;1002645;-35
2023/06/21 07:17:36;;;;;;;13.10;9.20;;;;;;;-128.00;-1.00;-1.00;97750;297;1004869;-35
2023/06/21 07:20:06;;;;;;;9.20;8.20;;;;;;;-128.00;-1.00;-1.00;97833;297;1003001;-31
2023/06/21 07:22:32;;;;;;;10.50;9.50;;;;;;;-128.00;-1.00;-1.00;97859;297;1005660;-32
2023/06/21 07:24:58;;;;;;;11.20;9.50;;;;;;;-128.00;-1.00;-1.00;97848;297;1003176;-36
2023/06/21 07:27:26;;;;;;;16.10;9.80;;;;;;;-128.00;-1.00;-1.00;97675;298;1004055;-31
2023/06/21 07:29:52;;;;;;;13.70;9.10;;;;;;;-128.00;-1.00;-1.00;97720;297;1003580;-35
2023/06/21 07:32:18;;;;;;;10.00;8.90;;;;;;;-128.00;-1.00;-1.00;97725;297;1002773;-33
2023/06/21 07:34:43;;;;;;;11.30;9.10;;;;;;;-128.00;-1.00;-1.00;97852;297;1004549;-37
2023/06/21 07:37:09;;;;;;;11.00;9.30;;;;;;;-128.00;-1.00;-1.00;97810;297;1003153;-35
2023/06/21 07:39:35;;;;;;;9.50;8.60;;;;;;;-128.00;-1.00;-1.00;97744;297;1003049;-32
2023/06/21 07:42:04;;;;;;;10.40;7.80;;;;;;;-128.00;-1.00;-1.00;97773;297;1002945;-31
2023/06/21 07:44:33;;;;;;;9.00;7.50;;;;;;;-128.00;-1.00;-1.00;97948;297;1003201;-35
2023/06/21 07:46:59;;;;;;;8.60;7.80;;;;;;;-128.00;-1.00;-1.00;97824;297;1003244;-31
2023/06/21 07:49:24;;;;;;;10.40;9.10;;;;;;;-128.00;-1.00;-1.00;97721;297;1005215;-31
2023/06/21 07:51:50;;;;;;;11.40;9.10;;;;;;;-128.00;-1.00;-1.00;97816;297;1003048;-35
2023/06/21 07:54:16;;;;;;;9.70;8.60;;;;;;;-128.00;-1.00;-1.00;97772;297;1003820;-31
2023/06/21 07:56:42;;;;;;;10.30;8.30;;;;;;;-128.00;-1.00;-1.00;97786;297;1003408;-33
2023/06/21 07:59:07;;;;;;;11.90;8.80;;;;;;;-128.00;-1.00;-1.00;97740;297;1003120;-37
2023/06/21 08:01:34;;;;;;;10.70;9.70;;;;;;;-128.00;-1.00;-1.00;97866;297;1004289;-32
2023/06/21 08:04:00;;;;;;;9.70;8.70;;;;;;;-128.00;-1.00;-1.00;97852;297;1002909;-36
2023/06/21 08:06:26;;;;;;;9.70;8.70;;;;;;;-128.00;-1.00;-1.00;97947;297;1003336;-36
2023/06/21 08:08:52;;;;;;;11.20;9.70;;;;;;;-128.00;-1.00;-1.00;97773;297;1003475;-30
2023/06/21 08:11:18;;;;;;;11.50;10.00;;;;;;;-128.00;-1.00;-1.00;97803;297;1003801;-35
2023/06/21 08:13:44;;;;;;;10.80;9.60;;;;;;;-128.00;-1.00;-1.00;97673;298;1003194;-35
2023/06/21 08:16:10;;;;;;;9.30;8.20;;;;;;;-128.00;-1.00;-1.00;97745;297;1003188;-32
2023/06/21 08:18:35;;;;;;;8.90;8.10;;;;;;;-128.00;-1.00;-1.00;97771;297;1004215;-35
2023/06/21 08:21:01;;;;;;;12.70;10.80;;;;;;;-128.00;-1.00;-1.00;97817;297;1003395;-34
2023/06/21 08:23:27;;;;;;;10.90;9.90;;;;;;;-128.00;-1.00;-1.00;97818;297;1002662;-34
2023/06/21 08:25:53;;;;;;;11.30;9.10;;;;;;;-128.00;-1.00;-1.00;97898;297;1004857;-33
2023/06/21 08:28:18;;;;;;;11.80;10.50;;;;;;;-128.00;-1.00;-1.00;97787;297;1003648;-35
2023/06/21 08:30:44;;;;;;;12.40;9.60;;;;;;;-128.00;-1.00;-1.00;97827;297;1002899;-36
2023/06/21 08:33:09;;;;;;;8.60;7.80;;;;;;;-128.00;-1.00;-1.00;97863;286;1003371;-34
2023/06/21 08:35:36;;;;;;;13.80;9.60;;;;;;;-128.00;-1.00;-1.00;97778;297;1002966;-29
2023/06/21 08:38:03;;;;;;;11.60;8.90;;;;;;;-128.00;-1.00;-1.00;97736;297;1002994;-31
2023/06/21 08:40:33;;;;;;;14.10;9.90;;;;;;;-128.00;-1.00;-1.00;97707;297;1003059;-31
2023/06/21 08:42:59;;;;;;;10.00;8.60;;;;;;;-128.00;-1.00;-1.00;97746;297;1003057;-34
2023/06/21 08:45:25;;;;;;;12.50;10.50;;;;;;;-128.00;-1.00;-1.00;97758;297;1004534;-32
2023/06/21 08:47:51;;;;;;;12.50;9.60;;;;;;;-128.00;-1.00;-1.00;97873;297;1003083;-35
2023/06/21 08:50:20;;;;;;;10.10;9.00;;;;;;;-128.00;-1.00;-1.00;97812;297;1003169;-32
2023/06/21 08:52:48;;;;;;;16.10;10.30;;;;;;;-128.00;-1.00;-1.00;97818;298;1003389;-35
2023/06/21 08:55:14;;;;;;;12.80;10.50;;;;;;;-128.00;-1.00;-1.00;97863;297;1003078;-33
2023/06/21 08:57:56;;;;;;;23.50;11.30;;;;;;;-128.00;-1.00;-1.00;97862;297;1002936;-33
2023/06/21 09:00:23;;;;;;;12.20;9.90;;;;;;;-128.00;-1.00;-1.00;97732;297;1003146;-33
2023/06/21 09:03:07;;;;;;;10.00;8.90;;;;;;;-128.00;-1.00;-1.00;97842;297;1004286;-37
2023/06/21 09:05:36;;;;;;;12.40;10.80;;;;;;;-128.00;-1.00;-1.00;97812;299;1003101;-34
2023/06/21 09:08:02;;;;;;;11.60;10.50;;;;;;;-128.00;-1.00;-1.00;97745;297;1003900;-34
2023/06/21 09:10:28;;;;;;;9.30;7.80;;;;;;;-128.00;-1.00;-1.00;97785;297;1003526;-31
2023/06/21 09:12:55;;;;;;;12.40;8.30;;;;;;;-128.00;-1.00;-1.00;97836;297;1003208;-31
2023/06/21 09:15:22;;;;;;;14.20;9.90;;;;;;;-128.00;-1.00;-1.00;97763;297;1003257;-35
2023/06/21 09:17:47;;;;;;;15.40;10.70;;;;;;;-128.00;-1.00;-1.00;97893;297;1003413;-35
2023/06/21 09:20:15;;;;;;;16.40;10.60;;;;;;;-128.00;-1.00;-1.00;97426;297;1003254;-34
2023/06/21 09:22:41;;;;;;;12.00;10.10;;;;;;;-128.00;-1.00;-1.00;97742;297;1002893;-34
2023/06/21 09:25:07;;;;;;;11.60;9.30;;;;;;;-128.00;-1.00;-1.00;97774;297;1003718;-35
2023/06/21 09:27:32;;;;;;;12.70;9.60;;;;;;;-128.00;-1.00;-1.00;97782;297;1003907;-36
2023/06/21 09:29:58;;;;;;;20.10;10.70;;;;;;;-128.00;-1.00;-1.00;97858;297;1002671;-34
2023/06/21 09:32:24;;;;;;;12.60;10.10;;;;;;;-128.00;-1.00;-1.00;97845;297;1003209;-34
2023/06/21 09:34:49;;;;;;;12.70;11.30;;;;;;;-128.00;-1.00;-1.00;97806;286;1005659;-31
2023/06/21 09:37:31;;;;;;;15.10;10.60;;;;;;;-128.00;-1.00;-1.00;97713;297;1003152;-31
2023/06/21 09:39:57;;;;;;;19.20;9.80;;;;;;;-128.00;-1.00;-1.00;97779;297;1004426;-31
2023/06/21 09:42:24;;;;;;;21.40;11.00;;;;;;;-128.00;-1.00;-1.00;97808;297;1003495;-32
2023/06/21 09:44:52;;;;;;;13.70;12.30;;;;;;;-128.00;-1.00;-1.00;97826;297;1003351;-32
2023/06/21 09:47:18;;;;;;;11.50;8.70;;;;;;;-128.00;-1.00;-1.00;97805;297;1003144;-32
2023/06/21 09:49:47;;;;;;;14.30;10.90;;;;;;;-128.00;-1.00;-1.00;97838;297;1005370;-31
2023/06/21 09:52:17;;;;;;;13.70;11.50;;;;;;;-128.00;-1.00;-1.00;97781;297;1003063;-31
2023/06/21 09:54:45;;;;;;;13.40;10.30;;;;;;;-128.00;-1.00;-1.00;97729;297;1004359;-40
2023/06/21 09:57:11;;;;;;;17.10;13.10;;;;;;;-128.00;-1.00;-1.00;97834;297;1002952;-34
2023/06/21 09:59:37;;;;;;;13.20;10.00;;;;;;;-128.00;-1.00;-1.00;97827;297;1003490;-36
2023/06/21 10:02:04;;;;;;;12.20;10.50;;;;;;;-128.00;-1.00;-1.00;97757;297;1003585;-31
2023/06/21 10:04:30;;;;;;;17.80;12.20;;;;;;;-128.00;-1.00;-1.00;97646;297;1002981;-31
2023/06/21 10:06:56;;;;;;;16.90;12.50;;;;;;;-128.00;-1.00;-1.00;97823;297;1003226;-32
2023/06/21 10:09:22;;;;;;;13.80;12.10;;;;;;;-128.00;-1.00;-1.00;97727;297;1003888;-35
2023/06/21 10:11:54;;;;;;;16.40;13.10;;;;;;;-128.00;-1.00;-1.00;97849;297;1004706;-35
2023/06/21 10:14:21;;;;;;;13.20;11.50;;;;;;;-128.00;-1.00;-1.00;97919;297;1003521;-35
2023/06/21 10:16:52;;;;;;;19.10;13.10;;;;;;;-128.00;-1.00;-1.00;97830;297;1003102;-34
2023/06/21 10:19:20;;;;;;;12.30;10.90;;;;;;;-128.00;-1.00;-1.00;97817;297;1003066;-36
2023/06/21 10:21:48;;;;;;;13.40;12.10;;;;;;;-128.00;-1.00;-1.00;97736;297;1002777;-38
2023/06/21 10:24:14;;;;;;;17.70;11.20;;;;;;;-128.00;-1.00;-1.00;97793;297;1004369;-34
2023/06/21 10:26:40;;;;;;;17.40;11.20;;;;;;;-128.00;-1.00;-1.00;97749;297;1003104;-32
2023/06/21 10:29:06;;;;;;;12.00;10.70;;;;;;;-128.00;-1.00;-1.00;97780;297;1003101;-36
2023/06/21 10:31:31;;;;;;;15.20;10.40;;;;;;;-128.00;-1.00;-1.00;97808;297;1003105;-31
2023/06/21 10:33:57;;;;;;;13.30;12.00;;;;;;;-128.00;-1.00;-1.00;97844;297;1004602;-32
2023/06/21 10:36:26;;;;;;;13.20;10.50;;;;;;;-128.00;-1.00;-1.00;97832;297;1003337;-32
2023/06/21 10:38:54;;;;;;;19.00;11.00;;;;;;;-128.00;-1.00;-1.00;97740;297;1003606;-32
2023/06/21 10:41:19;;;;;;;13.00;10.90;;;;;;;-128.00;-1.00;-1.00;97767;297;1003897;-35
2023/06/21 10:43:46;;;;;;;11.70;10.30;;;;;;;-128.00;-1.00;-1.00;97768;297;1003863;-34
2023/06/21 10:46:11;;;;;;;12.30;9.50;;;;;;;-128.00;-1.00;-1.00;97852;297;1003323;-35
2023/06/21 10:48:37;;;;;;;9.70;8.70;;;;;;;-128.00;-1.00;-1.00;97722;297;1002881;-35
2023/06/21 10:51:04;;;;;;;9.50;8.20;;;;;;;-128.00;-1.00;-1.00;97791;297;1004219;-34
2023/06/21 10:53:31;;;;;;;11.70;10.60;;;;;;;-128.00;-1.00;-1.00;97812;297;1003892;-37
2023/06/21 10:55:58;;;;;;;10.30;9.30;;;;;;;-128.00;-1.00;-1.00;97808;297;1004123;-35
2023/06/21 10:58:24;;;;;;;9.30;8.10;;;;;;;-128.00;-1.00;-1.00;97774;297;1002653;-31
2023/06/21 11:00:50;;;;;;;9.90;9.00;;;;;;;-128.00;-1.00;-1.00;97776;297;1003685;-31
2023/06/21 11:03:16;;;;;;;8.50;7.50;;;;;;;-128.00;-1.00;-1.00;97722;297;1004990;-31
2023/06/21 11:05:42;;;;;;;9.30;7.10;;;;;;;-128.00;-1.00;-1.00;97810;299;1002895;-35
2023/06/21 11:08:11;;;;;;;9.20;7.90;;;;;;;-128.00;-1.00;-1.00;97782;297;1003771;-31
2023/06/21 11:10:49;;;;;;;15.60;8.90;;;;;;;-128.00;-1.00;-1.00;97752;297;1003110;-35
2023/06/21 11:13:36;;;;;;;9.40;8.40;;;;;;;-128.00;-1.00;-1.00;97755;297;1003364;-31
2023/06/21 11:16:16;;;;;;;9.90;7.70;;;;;;;-128.00;-1.00;-1.00;97779;297;1004355;-32
2023/06/21 11:18:49;;;;;;;12.10;8.70;;;;;;;-128.00;-1.00;-1.00;97753;297;1003798;-31
2023/06/21 11:21:14;;;;;;;8.90;8.10;;;;;;;-128.00;-1.00;-1.00;97765;297;1002658;-35
2023/06/21 11:23:52;;;;;;;9.70;7.70;;;;;;;-128.00;-1.00;-1.00;97773;290;1003728;-38
2023/06/21 11:26:18;;;;;;;8.40;7.30;;;;;;;-128.00;-1.00;-1.00;97815;297;1003343;-35
2023/06/21 11:28:48;;;;;;;8.80;8.00;;;;;;;-128.00;-1.00;-1.00;97737;297;1004233;-32
2023/06/21 11:31:18;;;;;;;14.20;9.50;;;;;;;-128.00;-1.00;-1.00;97884;297;1003646;-35
2023/06/21 11:33:47;;;;;;;8.60;7.90;;;;;;;-128.00;-1.00;-1.00;97733;297;1003262;-32
2023/06/21 11:36:13;;;;;;;12.20;10.20;;;;;;;-128.00;-1.00;-1.00;97790;297;1003087;-35
2023/06/21 11:38:49;;;;;;;10.30;9.30;;;;;;;-128.00;-1.00;-1.00;97813;297;1003140;-31
2023/06/21 11:41:42;;;;;;;10.10;9.20;;;;;;;-128.00;-1.00;-1.00;97814;297;1003147;-32
2023/06/21 11:44:08;;;;;;;15.70;10.00;;;;;;;-128.00;-1.00;-1.00;97745;297;1002961;-35
2023/06/21 11:46:34;;;;;;;12.60;9.70;;;;;;;-128.00;-1.00;-1.00;97695;297;1004715;-35
2023/06/21 11:49:00;;;;;;;9.70;8.70;;;;;;;-128.00;-1.00;-1.00;97905;297;1003933;-35
2023/06/21 11:51:30;;;;;;;11.50;10.40;;;;;;;-128.00;-1.00;-1.00;97660;297;1002916;-37
2023/06/21 11:53:56;;;;;;;15.30;11.60;;;;;;;-128.00;-1.00;-1.00;97819;297;1003324;-34
2023/06/21 11:56:21;;;;;;;13.60;10.70;;;;;;;-128.00;-1.00;-1.00;97808;297;1004108;-31
2023/06/21 11:58:48;;;;;;;8.10;7.40;;;;;;;-128.00;-1.00;-1.00;97811;297;1004957;-32